Time;durP1;ratioP1;P1;durP2;ratioP2;P2;SDS_P1;SDS_P2;PMS_P1;PMS_P2;Temp;Humidity;BMP_temperature;BMP_pressure;BME280_temperature;BME280_humidity;BME280_pressure;Samples;Min_cycle;Max_cycle;Signal;HPM_P1;HPM_P2
2023/06/15 00:00:09;;;;;;;5.25;2.55;;;20.20;59.30;;;;;;5050651;28;20047;-69
2023/06/15 00:02:35;;;;;;;6.70;2.53;;;20.10;59.20;;;;;;5050432;28;20363;-69
2023/06/15 00:05:00;;;;;;;10.30;2.80;;;20.20;59.30;;;;;;5050531;28;20040;-69
2023/06/15 00:07:26;;;;;;;6.05;2.90;;;20.10;59.30;;;;;;5049338;28;20017;-69
2023/06/15 00:09:52;;;;;;;7.38;3.15;;;20.20;59.50;;;;;;5050765;28;20059;-69
2023/06/15 00:12:18;;;;;;;8.95;2.75;;;20.10;59.50;;;;;;5050319;28;20039;-69
2023/06/15 00:14:43;;;;;;;9.50;2.65;;;20.00;59.90;;;;;;5049287;28;20071;-69
2023/06/15 00:17:11;;;;;;;4.85;2.63;;;19.90;59.60;;;;;;5049314;28;20029;-69
2023/06/15 00:19:37;;;;;;;4.88;2.38;;;19.90;59.40;;;;;;5050234;28;20495;-69
2023/06/15 00:22:04;;;;;;;5.88;2.85;;;19.90;59.40;;;;;;5049779;28;20139;-68
2023/06/15 00:24:30;;;;;;;4.13;2.70;;;19.90;59.30;;;;;;5050209;28;20029;-69
2023/06/15 00:26:55;;;;;;;6.90;2.78;;;19.80;59.60;;;;;;5050137;28;20036;-68
2023/06/15 00:29:21;;;;;;;9.32;3.25;;;19.80;59.70;;;;;;5049195;28;20041;-69
2023/06/15 00:31:47;;;;;;;6.30;2.63;;;19.80;59.50;;;;;;5049933;28;20033;-69
2023/06/15 00:34:12;;;;;;;6.03;2.65;;;19.80;59.70;;;;;;5049447;28;20021;-69
2023/06/15 00:36:38;;;;;;;6.78;3.17;;;19.80;59.70;;;;;;5050122;28;20029;-69
2023/06/15 00:39:04;;;;;;;6.45;2.65;;;19.80;59.70;;;;;;5050114;28;20032;-69
2023/06/15 00:41:30;;;;;;;6.00;3.33;;;19.70;60.20;;;;;;5050062;28;20598;-69
2023/06/15 00:43:55;;;;;;;6.35;3.05;;;19.70;59.70;;;;;;5050182;28;20036;-70
2023/06/15 00:46:22;;;;;;;13.70;2.70;;;19.60;59.70;;;;;;5050053;28;20105;-69
2023/06/15 00:48:48;;;;;;;5.28;2.58;;;19.50;59.90;;;;;;5050486;28;20055;-70
2023/06/15 00:51:14;;;;;;;8.77;3.40;;;19.50;60.10;;;;;;5050149;28;20368;-69
2023/06/15 00:53:42;;;;;;;7.50;2.83;;;19.50;60.30;;;;;;5050299;28;20029;-69
2023/06/15 00:56:08;;;;;;;7.45;2.88;;;19.40;60.50;;;;;;5050055;28;20029;-70
2023/06/15 00:58:35;;;;;;;5.75;3.10;;;19.40;61.00;;;;;;5050073;28;20110;-70
2023/06/15 01:01:01;;;;;;;5.20;3.10;;;19.30;61.40;;;;;;5049670;28;20451;-70
2023/06/15 01:03:30;;;;;;;9.23;2.97;;;19.20;61.70;;;;;;5050170;28;20033;-70
2023/06/15 01:05:58;;;;;;;7.47;2.78;;;19.10;62.00;;;;;;5050026;28;20029;-69
2023/06/15 01:08:26;;;;;;;6.20;2.88;;;19.10;62.10;;;;;;5050036;28;20052;-70
2023/06/15 01:10:54;;;;;;;6.57;2.85;;;18.90;62.40;;;;;;5048876;28;20094;-71
2023/06/15 01:13:20;;;;;;;4.47;2.78;;;18.80;62.70;;;;;;5050483;28;20112;-70
2023/06/15 01:15:51;;;;;;;7.88;3.03;;;18.80;63.10;;;;;;5050704;28;20021;-70
2023/06/15 01:18:20;;;;;;;9.80;3.67;;;18.70;63.30;;;;;;5050137;28;20494;-71
2023/06/15 01:20:48;;;;;;;5.32;3.10;;;18.60;63.60;;;;;;5050047;28;20056;-70
2023/06/15 01:23:31;;;;;;;;;;;18.60;63.70;;;;;;5050173;28;20050;-68
2023/06/15 01:26:08;;;;;;;6.78;3.22;;;18.60;64.60;;;;;;5050242;28;19908;-71
2023/06/15 01:28:35;;;;;;;7.28;3.25;;;18.50;63.90;;;;;;5051437;28;20055;-71
2023/06/15 01:31:01;;;;;;;6.63;3.20;;;18.40;64.00;;;;;;5054475;28;20100;-71
2023/06/15 01:33:27;;;;;;;7.50;2.90;;;18.40;64.00;;;;;;5052787;28;20107;-71
2023/06/15 01:35:53;;;;;;;5.97;3.00;;;18.40;63.70;;;;;;5045690;28;20436;-69
2023/06/15 01:38:24;;;;;;;5.40;3.10;;;18.30;64.20;;;;;;5033619;28;20267;-70
2023/06/15 01:40:51;;;;;;;10.95;3.38;;;18.40;64.30;;;;;;5032862;28;20399;-70
2023/06/15 01:43:20;;;;;;;5.70;2.90;;;18.40;64.40;;;;;;5032465;28;20033;-69
2023/06/15 01:45:47;;;;;;;4.25;2.90;;;18.30;64.40;;;;;;5033475;28;20502;-70
2023/06/15 01:48:13;;;;;;;5.35;3.33;;;18.30;64.20;;;;;;5032870;28;20034;-68
2023/06/15 01:50:41;;;;;;;4.63;3.20;;;18.30;64.70;;;;;;5033062;28;20033;-68
2023/06/15 01:53:07;;;;;;;5.57;3.30;;;18.30;64.60;;;;;;5032745;28;20044;-69
2023/06/15 01:55:33;;;;;;;10.05;3.17;;;18.20;65.10;;;;;;5032703;28;20255;-69
2023/06/15 01:57:58;;;;;;;6.70;2.85;;;18.20;64.90;;;;;;5033143;28;20373;-70
2023/06/15 02:00:25;;;;;;;10.82;4.07;;;18.20;64.90;;;;;;5032752;28;20051;-70
2023/06/15 02:02:51;;;;;;;5.32;3.25;;;18.10;65.00;;;;;;5032745;28;20033;-69
2023/06/15 02:05:17;;;;;;;6.80;3.53;;;18.10;64.80;;;;;;5032877;28;20045;-70
2023/06/15 02:07:44;;;;;;;5.05;2.70;;;18.00;65.40;;;;;;5032411;28;20482;-70
2023/06/15 02:10:09;;;;;;;9.73;3.22;;;17.90;65.40;;;;;;5032910;28;20025;-70
2023/06/15 02:12:35;;;;;;;4.90;3.03;;;17.90;65.60;;;;;;5031333;28;20036;-70
2023/06/15 02:15:02;;;;;;;13.40;2.80;;;17.80;65.70;;;;;;5032448;28;20109;-69
2023/06/15 02:17:41;;;;;;;8.25;2.92;;;17.90;65.30;;;;;;5032475;28;20045;-70
2023/06/15 02:20:08;;;;;;;7.82;2.90;;;17.90;65.90;;;;;;5031322;28;20030;-69
2023/06/15 02:22:34;;;;;;;7.60;3.17;;;17.90;66.00;;;;;;5031411;28;20033;-69
2023/06/15 02:24:59;;;;;;;4.50;2.85;;;17.70;66.20;;;;;;5033073;28;20095;-69
2023/06/15 02:27:25;;;;;;;4.97;3.20;;;17.70;66.40;;;;;;5032521;28;20464;-70
2023/06/15 02:29:51;;;;;;;6.47;3.08;;;17.70;66.50;;;;;;5032349;28;20053;-70
2023/06/15 02:32:37;;;;;;;4.47;2.95;;;17.70;66.30;;;;;;5032325;28;20052;-68
2023/06/15 02:35:11;;;;;;;8.35;3.20;;;17.70;66.30;;;;;;5032249;28;20036;-69
2023/06/15 02:37:37;;;;;;;6.97;2.85;;;17.70;66.50;;;;;;5032203;28;20025;-69
2023/06/15 02:40:05;;;;;;;6.05;3.00;;;17.60;66.30;;;;;;5031631;28;20045;-69
2023/06/15 02:42:30;;;;;;;11.95;3.20;;;17.70;66.20;;;;;;5032091;28;20140;-69
2023/06/15 02:44:56;;;;;;;6.15;3.60;;;17.60;66.40;;;;;;5031914;28;20041;-69
2023/06/15 02:47:22;;;;;;;8.48;3.08;;;17.60;66.60;;;;;;5030906;28;20033;-68
2023/06/15 02:49:48;;;;;;;9.27;3.50;;;17.50;66.70;;;;;;5031856;28;20064;-68
2023/06/15 02:52:14;;;;;;;3.80;3.08;;;17.40;66.80;;;;;;5032388;28;20033;-69
2023/06/15 02:54:39;;;;;;;6.25;3.53;;;17.40;66.80;;;;;;5031954;28;20424;-69
2023/06/15 02:57:06;;;;;;;4.53;3.13;;;17.40;67.10;;;;;;5031790;28;20066;-69
2023/06/15 02:59:34;;;;;;;3.90;2.88;;;17.30;67.10;;;;;;5031805;28;20030;-69
2023/06/15 03:02:00;;;;;;;4.45;2.97;;;17.30;67.30;;;;;;5031759;28;20029;-69
2023/06/15 03:04:27;;;;;;;5.75;3.47;;;17.30;67.30;;;;;;5022655;28;20021;-69
2023/06/15 03:06:53;;;;;;;7.32;3.15;;;17.30;67.50;;;;;;5031902;28;20028;-68
2023/06/15 03:09:20;;;;;;;6.57;2.90;;;17.30;67.70;;;;;;5031572;28;20031;-69
2023/06/15 03:11:46;;;;;;;5.90;2.77;;;17.20;68.00;;;;;;5031458;28;20112;-68
2023/06/15 03:14:12;;;;;;;8.70;3.13;;;17.20;68.20;;;;;;5031556;28;20370;-68
2023/06/15 03:16:39;;;;;;;7.03;4.00;;;17.20;68.30;;;;;;5030313;28;20033;-68
2023/06/15 03:19:05;;;;;;;6.78;3.28;;;17.20;68.50;;;;;;5031921;28;20389;-69
2023/06/15 03:21:31;;;;;;;8.52;3.58;;;17.10;68.80;;;;;;5031453;28;20250;-69
2023/06/15 03:23:57;;;;;;;8.02;3.30;;;17.10;69.00;;;;;;5030024;28;20029;-68
2023/06/15 03:26:23;;;;;;;7.53;3.97;;;17.20;68.70;;;;;;5031175;28;20376;-69
2023/06/15 03:28:49;;;;;;;5.38;3.03;;;17.10;68.70;;;;;;5031052;28;20030;-68
2023/06/15 03:31:18;;;;;;;5.93;3.22;;;17.10;69.10;;;;;;5031556;28;20053;-68
2023/06/15 03:33:45;;;;;;;10.07;3.13;;;17.00;69.00;;;;;;5031096;28;20044;-68
2023/06/15 03:36:13;;;;;;;7.47;3.28;;;17.00;68.90;;;;;;5030917;28;20091;-68
2023/06/15 03:38:42;;;;;;;11.50;4.43;;;17.00;69.30;;;;;;5030903;28;20021;-69
2023/06/15 03:41:08;;;;;;;9.32;3.58;;;17.10;69.20;;;;;;5030753;28;20025;-68
2023/06/15 03:43:37;;;;;;;6.95;3.63;;;17.10;69.60;;;;;;5030683;28;20091;-68
2023/06/15 03:46:04;;;;;;;7.00;3.45;;;17.10;69.60;;;;;;5030224;28;20022;-69
2023/06/15 03:48:30;;;;;;;7.30;3.53;;;17.10;69.60;;;;;;5030844;28;20361;-68
2023/06/15 03:50:56;;;;;;;8.48;3.33;;;17.20;69.80;;;;;;5030347;28;20495;-68
2023/06/15 03:53:23;;;;;;;23.92;4.85;;;17.10;70.00;;;;;;5029561;28;20033;-68
2023/06/15 03:55:49;;;;;;;10.93;4.17;;;17.10;70.10;;;;;;5030613;28;20167;-69
2023/06/15 03:58:16;;;;;;;8.48;3.28;;;17.20;70.10;;;;;;5030832;28;20116;-69
2023/06/15 04:00:43;;;;;;;9.15;3.35;;;17.30;69.80;;;;;;5030516;28;20036;-69
2023/06/15 04:03:09;;;;;;;19.33;4.25;;;17.40;70.00;;;;;;5030722;28;20034;-69
2023/06/15 04:05:34;;;;;;;6.07;3.47;;;17.40;70.10;;;;;;5029327;28;20038;-69
2023/06/15 04:08:01;;;;;;;11.23;4.38;;;17.50;69.30;;;;;;5030236;28;20134;-68
2023/06/15 04:10:27;;;;;;;7.63;3.30;;;17.60;69.60;;;;;;5030513;28;20024;-68
2023/06/15 04:12:53;;;;;;;5.68;3.40;;;17.50;70.40;;;;;;5029890;28;20019;-70
2023/06/15 04:15:18;;;;;;;5.18;3.35;;;17.40;71.20;;;;;;5030386;28;20022;-69
2023/06/15 04:17:44;;;;;;;11.45;3.72;;;17.30;71.50;;;;;;5030363;28;20721;-68
2023/06/15 04:20:10;;;;;;;7.90;3.38;;;17.40;71.60;;;;;;5030205;28;20025;-69
2023/06/15 04:22:36;;;;;;;10.77;4.25;;;17.40;71.80;;;;;;5029195;28;20034;-68
2023/06/15 04:25:02;;;;;;;23.38;4.13;;;17.40;71.90;;;;;;5030664;28;20114;-68
2023/06/15 04:27:28;;;;;;;10.75;3.88;;;17.40;71.80;;;;;;5030498;28;20025;-68
2023/06/15 04:29:54;;;;;;;7.25;3.53;;;17.40;72.20;;;;;;5030206;28;20033;-70
2023/06/15 04:32:20;;;;;;;8.13;4.32;;;17.40;72.40;;;;;;5030092;28;20045;-70
2023/06/15 04:34:45;;;;;;;13.32;5.03;;;17.40;72.70;;;;;;5030195;28;20429;-68
2023/06/15 04:37:16;;;;;;;8.40;3.55;;;17.50;73.20;;;;;;5029678;28;20057;-69
2023/06/15 04:39:42;;;;;;;12.00;4.18;;;17.50;73.30;;;;;;5030121;28;20051;-68
2023/06/15 04:42:09;;;;;;;15.68;3.65;;;17.60;74.40;;;;;;5028852;28;20485;-69
2023/06/15 04:44:35;;;;;;;15.63;4.15;;;17.60;73.60;;;;;;5030169;28;20209;-69
2023/06/15 04:47:03;;;;;;;10.07;4.13;;;17.60;74.00;;;;;;5030048;28;20116;-69
2023/06/15 04:49:30;;;;;;;;;;;17.80;73.70;;;;;;5030529;28;20025;-69
2023/06/15 04:51:56;;;;;;;10.87;4.33;;;17.80;73.20;;;;;;5030681;28;19901;-70
2023/06/15 04:54:22;;;;;;;7.63;3.95;;;17.90;73.30;;;;;;5029918;28;20129;-70
2023/06/15 04:56:48;;;;;;;14.55;4.70;;;18.00;72.80;;;;;;5028817;28;20112;-70
2023/06/15 04:59:14;;;;;;;17.05;4.13;;;18.10;71.80;;;;;;5028846;28;20112;-70
2023/06/15 05:01:39;;;;;;;11.02;3.85;;;18.10;71.80;;;;;;5030088;28;20112;-70
2023/06/15 05:04:05;;;;;;;10.27;4.25;;;18.20;72.20;;;;;;5032132;28;20463;-69
2023/06/15 05:06:31;;;;;;;10.07;4.13;;;18.30;71.60;;;;;;5033742;28;20072;-70
2023/06/15 05:08:56;;;;;;;8.18;3.95;;;18.40;71.10;;;;;;5033706;28;20434;-71
2023/06/15 05:11:22;;;;;;;7.38;4.13;;;18.40;70.50;;;;;;5033773;28;20041;-70
2023/06/15 05:13:48;;;;;;;6.55;3.47;;;18.50;69.80;;;;;;5033404;28;20033;-70
2023/06/15 05:16:13;;;;;;;8.63;3.90;;;18.50;69.70;;;;;;5033939;28;20021;-71
2023/06/15 05:18:39;;;;;;;7.70;3.40;;;18.50;69.50;;;;;;5033438;28;20034;-69
2023/06/15 05:21:05;;;;;;;11.93;3.92;;;18.50;69.70;;;;;;5032295;28;20041;-71
2023/06/15 05:23:31;;;;;;;15.13;3.90;;;18.50;69.40;;;;;;5032228;28;20041;-71
2023/06/15 05:25:58;;;;;;;15.57;4.38;;;18.50;69.40;;;;;;5033703;28;20029;-69
2023/06/15 05:28:24;;;;;;;8.85;4.18;;;18.70;69.00;;;;;;5032095;28;20018;-70
2023/06/15 05:30:50;;;;;;;6.40;3.92;;;18.70;69.40;;;;;;5033443;28;20036;-72
2023/06/15 05:33:17;;;;;;;9.50;4.30;;;18.80;68.60;;;;;;5033027;28;20123;-71
2023/06/15 05:35:43;;;;;;;16.70;4.20;;;18.80;68.50;;;;;;5032952;28;20037;-71
2023/06/15 05:38:09;;;;;;;12.57;4.18;;;18.90;68.00;;;;;;5033020;28;20044;-70
2023/06/15 05:40:35;;;;;;;8.95;5.03;;;19.00;67.10;;;;;;5032755;28;20363;-71
2023/06/15 05:43:00;;;;;;;6.40;3.95;;;19.10;66.60;;;;;;5033224;28;20034;-70
2023/06/15 05:45:26;;;;;;;9.60;4.70;;;19.10;66.70;;;;;;5033148;28;20310;-70
2023/06/15 05:47:52;;;;;;;10.18;3.63;;;19.10;66.80;;;;;;5031770;28;20030;-69
2023/06/15 05:50:18;;;;;;;11.50;4.22;;;19.20;66.60;;;;;;5032865;28;20459;-69
2023/06/15 05:52:43;;;;;;;12.30;3.70;;;19.30;66.40;;;;;;5031723;28;20112;-69
2023/06/15 05:55:09;;;;;;;14.55;3.83;;;19.40;66.30;;;;;;5032999;28;20021;-70
2023/06/15 05:57:34;;;;;;;8.43;3.65;;;19.40;65.40;;;;;;5032861;28;20364;-70
2023/06/15 06:00:02;;;;;;;10.18;3.88;;;19.50;64.70;;;;;;5032490;28;20041;-70
2023/06/15 06:02:28;;;;;;;9.45;3.60;;;19.50;64.30;;;;;;5031325;28;20033;-69
2023/06/15 06:04:53;;;;;;;5.15;3.22;;;19.60;64.70;;;;;;5032439;28;20095;-69
2023/06/15 06:07:19;;;;;;;13.43;3.95;;;19.70;64.60;;;;;;5032003;28;20022;-69
2023/06/15 06:09:45;;;;;;;12.95;4.07;;;19.70;64.50;;;;;;5031496;28;20049;-68
2023/06/15 06:12:12;;;;;;;10.13;3.88;;;19.80;64.30;;;;;;5032502;28;20373;-70
2023/06/15 06:14:38;;;;;;;12.05;3.50;;;19.90;64.70;;;;;;5032403;28;20041;-69
2023/06/15 06:17:04;;;;;;;11.85;3.63;;;20.00;64.40;;;;;;5032699;28;20032;-69
2023/06/15 06:19:29;;;;;;;12.57;3.88;;;20.00;64.20;;;;;;5033014;28;20037;-70
2023/06/15 06:21:55;;;;;;;10.10;3.28;;;20.10;64.40;;;;;;5033180;28;20092;-69
2023/06/15 06:24:21;;;;;;;8.77;3.38;;;20.10;64.30;;;;;;5031440;28;20463;-70
2023/06/15 06:26:46;;;;;;;9.98;4.45;;;20.30;63.50;;;;;;5032625;28;20034;-69
2023/06/15 06:29:12;;;;;;;8.13;3.58;;;20.20;62.40;;;;;;5031587;28;20120;-69
2023/06/15 06:31:38;;;;;;;11.27;3.30;;;20.30;62.90;;;;;;5032155;28;20041;-69
2023/06/15 06:34:04;;;;;;;7.07;3.20;;;20.40;62.60;;;;;;5033112;28;20022;-69
2023/06/15 06:36:30;;;;;;;10.50;3.17;;;20.50;62.50;;;;;;5031283;28;20426;-67
2023/06/15 06:38:56;;;;;;;6.35;3.05;;;20.60;62.90;;;;;;5031829;28;20025;-69
2023/06/15 06:41:21;;;;;;;7.15;3.33;;;20.70;62.50;;;;;;5032584;28;20029;-69
2023/06/15 06:43:47;;;;;;;10.48;3.47;;;20.70;62.60;;;;;;5030906;28;20026;-70
2023/06/15 06:46:14;;;;;;;4.75;2.88;;;20.70;62.20;;;;;;5032555;28;20122;-68
2023/06/15 06:48:40;;;;;;;6.28;2.88;;;20.90;61.70;;;;;;5030834;28;20060;-68
2023/06/15 06:51:06;;;;;;;9.82;2.72;;;20.90;61.70;;;;;;5030945;28;20017;-69
2023/06/15 06:53:31;;;;;;;7.15;3.10;;;20.90;61.90;;;;;;5031985;28;20033;-71
2023/06/15 06:55:57;;;;;;;10.88;2.80;;;21.00;62.00;;;;;;5031504;28;20463;-68
2023/06/15 06:58:23;;;;;;;5.03;2.60;;;21.00;61.00;;;;;;5031327;28;20477;-69
2023/06/15 07:00:49;;;;;;;3.78;2.50;;;21.00;59.60;;;;;;5032113;28;20021;-72
2023/06/15 07:03:15;;;;;;;7.43;3.40;;;21.00;59.00;;;;;;5031868;28;20639;-69
2023/06/15 07:05:40;;;;;;;5.50;2.80;;;21.00;59.00;;;;;;5031636;28;20041;-69
2023/06/15 07:08:06;;;;;;;12.52;3.40;;;21.10;60.60;;;;;;5030143;28;20474;-68
2023/06/15 07:10:32;;;;;;;9.98;3.22;;;21.20;60.90;;;;;;5031504;28;20490;-68
2023/06/15 07:12:57;;;;;;;4.30;2.70;;;21.30;60.20;;;;;;5030962;28;20484;-68
2023/06/15 07:15:23;;;;;;;9.27;4.57;;;21.30;59.70;;;;;;5030081;28;20355;-70
2023/06/15 07:17:49;;;;;;;12.40;2.70;;;21.50;59.30;;;;;;5029834;28;20392;-69
2023/06/15 07:20:15;;;;;;;6.97;2.35;;;21.60;59.50;;;;;;5031296;28;20057;-69
2023/06/15 07:22:43;;;;;;;7.22;2.70;;;21.70;58.80;;;;;;5030816;28;20057;-68
2023/06/15 07:25:08;;;;;;;9.50;2.67;;;21.70;58.10;;;;;;5030289;28;20392;-68
2023/06/15 07:27:34;;;;;;;9.25;2.75;;;21.80;57.60;;;;;;5029356;28;20025;-69
2023/06/15 07:30:00;;;;;;;7.30;2.95;;;21.80;57.50;;;;;;5031267;28;20067;-68
2023/06/15 07:32:25;;;;;;;8.15;2.95;;;21.80;57.70;;;;;;5030560;28;20383;-70
2023/06/15 07:34:51;;;;;;;3.80;2.35;;;21.80;57.00;;;;;;5029879;28;20096;-69
2023/06/15 07:37:17;;;;;;;7.72;3.00;;;21.80;57.10;;;;;;5032217;28;20428;-69
2023/06/15 07:39:42;;;;;;;9.30;2.55;;;21.80;56.60;;;;;;5031369;28;20083;-69
2023/06/15 07:42:08;;;;;;;9.40;2.78;;;21.90;57.10;;;;;;5031744;28;20041;-69
2023/06/15 07:44:35;;;;;;;7.65;2.78;;;21.90;57.10;;;;;;5031563;28;20053;-68
2023/06/15 07:47:00;;;;;;;6.93;2.55;;;22.00;56.70;;;;;;5031501;28;20037;-69
2023/06/15 07:49:26;;;;;;;10.68;2.50;;;22.10;56.60;;;;;;5031369;28;20098;-69
2023/06/15 07:51:52;;;;;;;14.15;2.85;;;22.20;55.90;;;;;;5031925;28;20079;-69
2023/06/15 07:54:18;;;;;;;10.45;2.58;;;22.30;55.60;;;;;;5031674;28;20040;-71
2023/06/15 07:56:45;;;;;;;6.72;2.38;;;22.50;55.10;;;;;;5031648;28;20041;-68
2023/06/15 07:59:11;;;;;;;18.07;2.73;;;22.70;55.10;;;;;;5031463;28;20500;-71
2023/06/15 08:01:36;;;;;;;12.13;2.88;;;23.00;55.00;;;;;;5031424;28;20064;-69
2023/06/15 08:04:03;;;;;;;11.95;2.58;;;23.30;54.20;;;;;;5032021;28;20109;-70
2023/06/15 08:06:28;;;;;;;5.82;2.40;;;23.60;55.00;;;;;;5031451;28;20049;-70
2023/06/15 08:08:54;;;;;;;11.07;2.63;;;23.80;54.00;;;;;;5031336;28;20138;-70
2023/06/15 08:11:20;;;;;;;4.47;2.00;;;23.90;52.50;;;;;;5031247;28;20364;-71
2023/06/15 08:13:46;;;;;;;6.75;2.60;;;24.00;52.70;;;;;;5031278;28;20052;-69
2023/06/15 08:16:11;;;;;;;5.75;2.85;;;24.20;53.30;;;;;;5031661;28;20195;-69
2023/06/15 08:18:37;;;;;;;10.05;2.80;;;24.30;52.60;;;;;;5031131;28;20387;-70
2023/06/15 08:21:03;;;;;;;5.85;2.55;;;24.50;53.00;;;;;;5031216;28;20025;-71
2023/06/15 08:23:28;;;;;;;9.80;3.42;;;24.60;52.50;;;;;;5031190;28;20037;-70
2023/06/15 08:25:54;;;;;;;7.10;2.72;;;24.90;51.90;;;;;;5030937;28;20029;-70
2023/06/15 08:28:21;;;;;;;3.83;2.35;;;24.80;51.70;;;;;;5031630;28;20357;-71
2023/06/15 08:30:47;;;;;;;7.57;2.72;;;24.90;52.50;;;;;;5030984;28;20048;-70
2023/06/15 08:33:13;;;;;;;7.68;3.00;;;24.90;51.00;;;;;;5029998;28;20033;-69
2023/06/15 08:35:38;;;;;;;3.05;2.47;;;24.90;51.30;;;;;;5030746;28;20087;-70
2023/06/15 08:38:04;;;;;;;7.55;2.50;;;25.00;51.10;;;;;;5031355;28;20026;-70
2023/06/15 08:40:30;;;;;;;8.80;2.42;;;25.70;52.00;;;;;;5033998;28;20271;-70
2023/06/15 08:42:58;;;;;;;9.57;2.80;;;26.30;49.10;;;;;;5035586;28;20328;-70
2023/06/15 08:45:28;;;;;;;6.10;2.33;;;27.00;48.40;;;;;;5035080;28;20025;-71
2023/06/15 08:47:55;;;;;;;6.95;2.70;;;27.60;48.60;;;;;;5034898;28;20064;-70
2023/06/15 08:50:21;;;;;;;13.20;3.47;;;28.20;47.00;;;;;;5033383;28;20488;-71
2023/06/15 08:52:48;;;;;;;7.28;2.95;;;28.20;47.10;;;;;;5034962;28;20302;-70
2023/06/15 08:55:16;;;;;;;10.75;3.65;;;28.70;46.60;;;;;;5035265;28;20036;-70
2023/06/15 08:57:41;;;;;;;;;;;28.60;46.00;;;;;;5035132;28;20060;-70
2023/06/15 09:00:09;;;;;;;11.73;4.32;;;28.70;45.50;;;;;;5034953;28;19944;-70
2023/06/15 09:02:40;;;;;;;10.10;2.75;;;29.00;45.00;;;;;;5034991;28;20033;-70
2023/06/15 09:05:07;;;;;;;5.57;2.38;;;29.10;44.10;;;;;;5034554;28;20483;-70
2023/06/15 09:07:34;;;;;;;5.53;3.20;;;29.30;44.40;;;;;;5034839;28;20364;-70
2023/06/15 09:10:14;;;;;;;7.20;2.30;;;29.60;43.80;;;;;;5035149;28;20029;-69
2023/06/15 09:12:48;;;;;;;4.75;2.33;;;29.90;43.00;;;;;;5034762;28;20026;-70
2023/06/15 09:15:25;;;;;;;3.00;1.75;;;30.70;42.90;;;;;;5034591;28;20445;-69
2023/06/15 09:17:55;;;;;;;6.00;2.42;;;30.70;41.90;;;;;;5034433;28;20038;-70
2023/06/15 09:20:26;;;;;;;4.75;2.38;;;30.60;42.80;;;;;;5034642;28;20033;-71
2023/06/15 09:22:56;;;;;;;12.00;3.13;;;30.90;41.30;;;;;;5033177;28;20487;-70
2023/06/15 09:25:22;;;;;;;7.38;2.88;;;30.40;42.20;;;;;;5034110;28;20032;-70
2023/06/15 09:28:04;;;;;;;5.72;2.60;;;29.90;42.70;;;;;;5034692;28;20105;-72
2023/06/15 09:30:40;;;;;;;6.28;2.80;;;30.00;42.40;;;;;;5034169;28;20113;-70
2023/06/15 09:33:19;;;;;;;5.63;2.33;;;29.20;41.20;;;;;;5034011;28;20060;-71
2023/06/15 09:36:00;;;;;;;6.15;2.50;;;29.00;43.00;;;;;;5034287;28;20029;-72
2023/06/15 09:38:45;;;;;;;5.13;2.00;;;29.40;42.20;;;;;;5033569;28;20026;-70
2023/06/15 09:41:11;;;;;;;3.22;2.10;;;29.30;42.10;;;;;;5034106;28;20042;-71
2023/06/15 09:43:39;;;;;;;4.90;2.45;;;29.50;41.80;;;;;;5033756;28;20080;-72
2023/06/15 09:46:24;;;;;;;8.18;2.83;;;29.50;40.30;;;;;;5034171;28;20140;-71
2023/06/15 09:48:50;;;;;;;8.32;2.60;;;29.00;41.50;;;;;;5052051;28;20045;-69
2023/06/15 09:51:16;;;;;;;10.15;2.30;;;28.90;41.70;;;;;;5037722;28;20347;-71
2023/06/15 09:53:43;;;;;;;9.63;3.20;;;29.10;41.50;;;;;;5033764;28;20037;-70
2023/06/15 09:56:10;;;;;;;7.30;2.70;;;29.20;42.50;;;;;;5033632;28;20375;-71
2023/06/15 09:58:36;;;;;;;4.10;2.40;;;29.10;40.80;;;;;;5033806;28;20076;-70
2023/06/15 10:01:04;;;;;;;8.13;3.78;;;29.00;40.70;;;;;;5033961;28;20053;-69
2023/06/15 10:03:31;;;;;;;10.52;4.05;;;28.80;41.30;;;;;;5032028;28;20424;-70
2023/06/15 10:06:09;;;;;;;9.43;2.97;;;28.90;42.30;;;;;;5033411;28;20025;-69
2023/06/15 10:08:38;;;;;;;;;;;28.70;42.70;;;;;;5032603;28;20463;-70
2023/06/15 10:11:04;;;;;;;6.40;3.35;;;28.60;42.50;;;;;;5033522;28;20311;-70
2023/06/15 10:13:38;;;;;;;5.97;3.20;;;28.60;42.50;;;;;;5033439;28;20056;-70
2023/06/15 10:16:05;;;;;;;9.15;2.95;;;28.40;43.70;;;;;;5033600;28;20017;-70
2023/06/15 10:18:32;;;;;;;13.57;7.35;;;28.40;40.50;;;;;;5033092;28;20378;-70
2023/06/15 10:20:59;;;;;;;7.68;3.67;;;28.40;41.00;;;;;;5032158;28;20101;-70
2023/06/15 10:23:26;;;;;;;;;;;28.50;41.60;;;;;;5033464;28;20084;-69
2023/06/15 10:25:57;;;;;;;9.32;2.85;;;28.60;40.60;;;;;;5033439;28;19913;-70
2023/06/15 10:28:30;;;;;;;13.85;2.83;;;28.60;41.40;;;;;;5032942;28;20095;-70
2023/06/15 10:30:59;;;;;;;7.00;2.50;;;28.60;41.10;;;;;;5033359;28;20482;-70
2023/06/15 10:33:44;;;;;;;5.72;3.42;;;28.60;41.20;;;;;;5032621;28;20394;-70
2023/06/15 10:36:28;;;;;;;3.97;2.65;;;28.20;41.40;;;;;;5033096;28;20112;-70
2023/06/15 10:39:19;;;;;;;6.13;2.47;;;28.40;42.10;;;;;;5032962;28;20030;-71
2023/06/15 10:41:45;;;;;;;5.15;1.88;;;28.50;42.50;;;;;;5033028;28;20034;-70
2023/06/15 10:44:15;;;;;;;8.60;2.63;;;28.60;41.90;;;;;;5031859;28;20370;-70
2023/06/15 10:46:41;;;;;;;6.30;2.78;;;28.80;41.80;;;;;;5031448;28;20128;-69
2023/06/15 10:49:09;;;;;;;5.38;3.13;;;28.90;41.10;;;;;;5032795;28;20109;-69
2023/06/15 10:51:38;;;;;;;4.97;2.35;;;28.80;41.00;;;;;;5031751;28;20182;-68
2023/06/15 10:54:18;;;;;;;6.32;2.90;;;28.60;41.90;;;;;;5032606;28;20390;-69
2023/06/15 10:56:53;;;;;;;6.03;3.13;;;28.70;42.50;;;;;;5032659;28;20038;-68
2023/06/15 10:59:53;;;;;;;4.75;2.78;;;28.90;44.00;;;;;;5032340;28;20034;-68
2023/06/15 11:02:27;;;;;;;12.45;2.92;;;28.80;42.60;;;;;;5031457;28;20478;-68
2023/06/15 11:04:59;;;;;;;6.15;2.90;;;28.70;42.40;;;;;;5032591;28;20044;-68
2023/06/15 11:07:30;;;;;;;6.28;3.03;;;28.60;42.00;;;;;;5032617;28;20034;-69
2023/06/15 11:10:09;;;;;;;5.90;3.40;;;28.60;41.90;;;;;;5032655;28;20581;-68
2023/06/15 11:12:37;;;;;;;7.43;3.60;;;28.40;42.20;;;;;;5032685;28;20111;-70
2023/06/15 11:15:05;;;;;;;10.32;3.53;;;28.30;42.20;;;;;;5032223;28;20072;-70
2023/06/15 11:17:31;;;;;;;4.85;2.53;;;28.30;42.40;;;;;;5030943;28;20041;-68
2023/06/15 11:19:57;;;;;;;6.85;3.30;;;28.40;41.60;;;;;;5032002;28;20477;-69
2023/06/15 11:22:25;;;;;;;7.53;2.92;;;28.40;41.50;;;;;;5031993;28;20554;-69
2023/06/15 11:24:54;;;;;;;6.30;3.03;;;28.30;41.70;;;;;;5032246;28;20017;-70
2023/06/15 11:27:22;;;;;;;9.57;2.75;;;28.30;42.10;;;;;;5031740;28;20040;-70
2023/06/15 11:29:56;;;;;;;4.93;2.85;;;27.90;42.10;;;;;;5031715;28;20033;-68
2023/06/15 11:32:26;;;;;;;5.70;2.72;;;28.00;46.00;;;;;;5031259;28;20041;-70
2023/06/15 11:34:56;;;;;;;4.72;3.60;;;27.70;42.20;;;;;;5031538;28;20586;-68
2023/06/15 11:37:26;;;;;;;7.43;3.10;;;27.60;44.10;;;;;;5031523;28;20132;-69
2023/06/15 11:39:52;;;;;;;7.00;3.38;;;27.80;43.40;;;;;;5032239;28;20104;-69
2023/06/15 11:42:20;;;;;;;5.13;2.72;;;27.90;43.10;;;;;;5031677;28;20129;-69
2023/06/15 11:44:49;;;;;;;5.40;3.00;;;27.70;44.90;;;;;;5031740;28;20139;-69
2023/06/15 11:47:16;;;;;;;7.05;3.30;;;27.70;44.70;;;;;;5030376;28;20038;-69
2023/06/15 11:49:44;;;;;;;7.22;3.03;;;27.70;44.40;;;;;;5031663;28;20045;-69
2023/06/15 11:52:10;;;;;;;7.65;3.17;;;27.50;43.10;;;;;;5031801;28;20022;-70
2023/06/15 11:54:36;;;;;;;7.72;3.05;;;27.30;42.50;;;;;;5031426;28;20055;-67
2023/06/15 11:57:02;;;;;;;7.10;2.50;;;27.30;43.40;;;;;;5031347;28;20025;-68
2023/06/15 11:59:28;;;;;;;7.75;2.90;;;27.30;43.90;;;;;;5031488;28;20044;-68
2023/06/15 12:02:00;;;;;;;7.47;3.03;;;27.30;43.40;;;;;;5031251;28;20021;-68
2023/06/15 12:04:30;;;;;;;6.47;2.88;;;27.30;45.70;;;;;;5031629;28;20029;-69
2023/06/15 12:06:58;;;;;;;5.25;2.55;;;27.20;43.70;;;;;;5030802;28;20030;-68
2023/06/15 12:09:24;;;;;;;4.50;2.95;;;27.20;43.60;;;;;;5031250;28;20044;-69
2023/06/15 12:11:49;;;;;;;7.35;3.83;;;27.10;45.10;;;;;;5030297;28;20022;-68
2023/06/15 12:14:20;;;;;;;9.43;3.90;;;27.20;44.90;;;;;;5031264;28;20049;-69
2023/06/15 12:16:51;;;;;;;8.13;2.92;;;27.20;44.00;;;;;;5030845;28;20460;-68
2023/06/15 12:19:18;;;;;;;7.88;2.90;;;27.20;43.80;;;;;;5030540;28;20040;-70
2023/06/15 12:21:44;;;;;;;7.93;3.30;;;27.30;44.00;;;;;;5031394;28;20124;-69
2023/06/15 12:24:22;;;;;;;5.50;3.03;;;27.30;44.40;;;;;;5031061;28;20493;-69
2023/06/15 12:26:57;;;;;;;8.73;2.63;;;27.40;44.40;;;;;;5029987;28;20025;-68
2023/06/15 12:29:24;;;;;;;8.55;3.08;;;27.30;43.90;;;;;;5030666;28;20045;-68
2023/06/15 12:31:52;;;;;;;7.13;2.90;;;27.30;44.20;;;;;;5030696;28;20068;-68
2023/06/15 12:34:24;;;;;;;11.40;3.17;;;27.40;44.00;;;;;;5031342;28;20079;-68
2023/06/15 12:36:50;;;;;;;7.50;2.92;;;27.30;43.60;;;;;;5031094;28;20034;-69
2023/06/15 12:39:16;;;;;;;9.77;3.65;;;27.30;43.80;;;;;;5029919;28;20048;-71
2023/06/15 12:41:42;;;;;;;6.93;3.10;;;27.30;44.60;;;;;;5030952;28;20026;-69
2023/06/15 12:44:09;;;;;;;10.38;2.90;;;27.20;44.30;;;;;;5029554;28;20083;-69
2023/06/15 12:46:39;;;;;;;3.40;2.75;;;27.30;44.40;;;;;;5030575;28;20022;-70